createdAt,value
2023-04-15T00:01:07.010Z,6.77
2023-04-15T00:03:34.581Z,6.75
2023-04-15T00:06:02.440Z,6.77
2023-04-15T00:08:30.137Z,6.74
2023-04-15T00:10:56.722Z,6.77
2023-04-15T00:13:23.711Z,6.77
2023-04-15T00:15:50.323Z,6.75
2023-04-15T00:18:16.925Z,6.75
2023-04-15T00:20:43.444Z,6.76
2023-04-15T00:23:09.987Z,6.77
2023-04-15T00:25:36.755Z,6.77
2023-04-15T00:28:04.083Z,6.78
2023-04-15T00:30:31.532Z,6.77
2023-04-15T00:32:58.300Z,6.80
2023-04-15T00:35:25.552Z,6.79
2023-04-15T00:37:52.179Z,6.80
2023-04-15T00:40:21.101Z,6.83
2023-04-15T00:42:48.151Z,6.83
2023-04-15T00:45:14.682Z,6.84
2023-04-15T00:47:43.221Z,6.84
2023-04-15T00:50:10.981Z,6.85
2023-04-15T00:52:37.794Z,6.87
2023-04-15T00:55:05.457Z,6.87
2023-04-15T00:57:32.314Z,6.88
2023-04-15T00:59:59.145Z,6.87
2023-04-15T01:02:25.955Z,6.89
2023-04-15T01:04:52.653Z,6.90
2023-04-15T01:07:19.546Z,6.88
2023-04-15T01:09:46.231Z,6.89
2023-04-15T01:12:15.523Z,6.86
2023-04-15T01:14:42.412Z,6.86
2023-04-15T01:17:09.259Z,6.84
2023-04-15T01:19:37.257Z,6.84
2023-04-15T01:22:04.184Z,6.84
2023-04-15T01:24:32.347Z,6.84
2023-04-15T01:26:59.424Z,6.84
2023-04-15T01:29:27.432Z,6.82
2023-04-15T01:31:56.041Z,6.80
2023-04-15T01:34:23.186Z,6.80
2023-04-15T01:36:49.766Z,6.77
2023-04-15T01:39:16.344Z,6.76
2023-04-15T01:41:42.961Z,6.76
2023-04-15T01:44:09.550Z,6.77
2023-04-15T01:46:37.097Z,6.75
2023-04-15T01:49:03.784Z,6.76
2023-04-15T01:51:30.347Z,6.76
2023-04-15T01:53:57.106Z,6.74
2023-04-15T01:56:25.459Z,6.75
2023-04-15T01:58:52.465Z,6.76
2023-04-15T02:01:20.084Z,6.72
2023-04-15T02:03:47.924Z,6.69
2023-04-15T02:06:14.971Z,6.69
2023-04-15T02:08:41.549Z,6.67
2023-04-15T02:11:08.438Z,6.68
2023-04-15T02:13:35.110Z,6.65
2023-04-15T02:16:01.890Z,6.66
2023-04-15T02:18:28.592Z,6.64
2023-04-15T02:20:57.339Z,6.64
2023-04-15T02:23:24.579Z,6.63
2023-04-15T02:25:53.831Z,6.65
2023-04-15T02:28:21.357Z,6.62
2023-04-15T02:30:50.979Z,6.64
2023-04-15T02:33:18.077Z,6.63
2023-04-15T02:35:45.490Z,6.63
2023-04-15T02:38:12.425Z,6.63
2023-04-15T02:40:39.036Z,6.62
2023-04-15T02:43:07.155Z,6.61
2023-04-15T02:45:34.021Z,6.64
2023-04-15T02:48:06.170Z,6.65
2023-04-15T02:50:33.054Z,6.66
2023-04-15T02:53:01.559Z,6.66
2023-04-15T02:55:28.990Z,6.61
2023-04-15T02:57:55.725Z,6.61
2023-04-15T03:00:22.619Z,6.63
2023-04-15T03:02:52.458Z,6.61
2023-04-15T03:05:19.247Z,6.64
2023-04-15T03:07:45.835Z,6.65
2023-04-15T03:10:12.524Z,6.66
2023-04-15T03:12:39.525Z,6.66
2023-04-15T03:15:06.894Z,6.65
2023-04-15T03:17:33.742Z,6.67
2023-04-15T03:20:02.867Z,6.71
2023-04-15T03:22:29.488Z,6.71
2023-04-15T03:24:56.212Z,6.74
2023-04-15T03:27:22.958Z,6.72
2023-04-15T03:29:49.739Z,6.68
2023-04-15T03:32:16.741Z,6.70
2023-04-15T03:34:43.722Z,6.68
2023-04-15T03:37:10.275Z,6.68
2023-04-15T03:39:36.939Z,6.69
2023-04-15T03:42:03.923Z,6.69
2023-04-15T03:44:30.721Z,6.66
2023-04-15T03:46:57.245Z,6.71
2023-04-15T03:49:24.585Z,6.72
2023-04-15T03:51:51.202Z,6.71
2023-04-15T03:54:17.748Z,6.69
2023-04-15T03:56:44.277Z,6.66
2023-04-15T03:59:11.467Z,6.69
2023-04-15T04:01:38.029Z,6.67
2023-04-15T04:04:04.712Z,6.65
2023-04-15T04:06:31.653Z,6.66
2023-04-15T04:08:58.183Z,6.67
2023-04-15T04:11:24.792Z,6.67
2023-04-15T04:13:51.312Z,6.64
2023-04-15T04:16:17.974Z,6.66
2023-04-15T04:18:44.595Z,6.66
2023-04-15T04:21:11.749Z,6.70
2023-04-15T04:23:38.357Z,6.65
2023-04-15T04:26:04.967Z,6.66
2023-04-15T04:28:31.604Z,6.60
2023-04-15T04:30:58.137Z,6.61
2023-04-15T04:33:24.733Z,6.60
2023-04-15T04:35:51.622Z,6.60
2023-04-15T04:38:18.234Z,6.58
2023-04-15T04:40:44.818Z,6.54
2023-04-15T04:43:11.359Z,6.54
2023-04-15T04:45:37.896Z,6.57
2023-04-15T04:48:07.247Z,6.57
2023-04-15T04:50:34.316Z,6.59
2023-04-15T04:53:01.578Z,6.53
2023-04-15T04:55:28.443Z,6.55
2023-04-15T04:57:54.961Z,6.52
2023-04-15T05:00:21.552Z,6.52
2023-04-15T05:02:48.565Z,6.55
2023-04-15T05:05:15.264Z,6.58
2023-04-15T05:07:42.199Z,6.57
2023-04-15T05:10:09.245Z,6.56
2023-04-15T05:12:37.497Z,6.56
2023-04-15T05:15:05.481Z,6.57
2023-04-15T05:17:33.300Z,6.60
2023-04-15T05:19:59.908Z,6.59
2023-04-15T05:22:26.611Z,6.58
2023-04-15T05:24:53.210Z,6.60
2023-04-15T05:27:19.749Z,6.63
2023-04-15T05:29:46.464Z,6.63
2023-04-15T05:32:13.033Z,6.59
2023-04-15T05:34:39.842Z,6.57
2023-04-15T05:37:06.546Z,6.60
2023-04-15T05:39:33.162Z,6.56
2023-04-15T05:42:00.284Z,6.58
2023-04-15T05:44:26.932Z,6.60
2023-04-15T05:46:53.496Z,6.60
2023-04-15T05:49:19.993Z,6.65
2023-04-15T05:51:47.982Z,6.67
2023-04-15T05:54:14.541Z,6.69
2023-04-15T05:56:41.222Z,6.68
2023-04-15T05:59:07.787Z,6.71
2023-04-15T06:01:34.969Z,6.73
2023-04-15T06:04:01.997Z,6.71
2023-04-15T06:06:28.640Z,6.71
2023-04-15T06:08:56.028Z,6.74
2023-04-15T06:11:22.616Z,6.74
2023-04-15T06:13:49.279Z,6.79
2023-04-15T06:16:15.955Z,6.83
2023-04-15T06:18:42.631Z,6.85
2023-04-15T06:21:09.180Z,6.90
2023-04-15T06:23:36.553Z,6.91
2023-04-15T06:26:03.778Z,6.92
2023-04-15T06:28:30.600Z,6.95
2023-04-15T06:30:57.329Z,6.99
2023-04-15T06:33:23.978Z,7.02
2023-04-15T06:35:51.005Z,7.04
2023-04-15T06:38:17.537Z,7.08
2023-04-15T06:40:44.283Z,7.07
2023-04-15T06:43:10.955Z,7.11
2023-04-15T06:45:37.535Z,7.14
2023-04-15T06:48:04.360Z,7.18
2023-04-15T06:50:30.970Z,7.23
2023-04-15T06:52:57.566Z,7.23
2023-04-15T06:55:24.122Z,7.28
2023-04-15T06:57:50.850Z,7.32
2023-04-15T07:00:17.805Z,7.34
2023-04-15T07:02:44.868Z,7.37
2023-04-15T07:05:11.499Z,7.39
2023-04-15T07:07:38.439Z,7.43
2023-04-15T07:10:05.618Z,7.43
2023-04-15T07:12:32.178Z,7.46
2023-04-15T07:14:58.744Z,7.45
2023-04-15T07:17:25.363Z,7.50
2023-04-15T07:19:52.144Z,7.55
2023-04-15T07:22:18.744Z,7.56
2023-04-15T07:24:46.229Z,7.60
2023-04-15T07:27:12.822Z,7.63
2023-04-15T07:29:39.389Z,7.67
2023-04-15T07:32:06.349Z,7.72
2023-04-15T07:34:33.053Z,7.75
2023-04-15T07:36:59.609Z,7.84
2023-04-15T07:39:26.486Z,7.89
2023-04-15T07:41:53.029Z,7.92
2023-04-15T07:44:19.554Z,7.97
2023-04-15T07:46:46.146Z,7.97
2023-04-15T07:49:13.501Z,7.97
2023-04-15T07:51:40.149Z,7.98
2023-04-15T07:54:06.683Z,8.02
2023-04-15T07:56:33.272Z,8.03
2023-04-15T07:59:02.411Z,8.04
2023-04-15T08:01:29.162Z,8.03
2023-04-15T08:03:55.996Z,8.02
2023-04-15T08:06:22.858Z,8.00
2023-04-15T08:08:49.405Z,8.01
2023-04-15T08:11:16.221Z,8.00
2023-04-15T08:13:42.853Z,8.02
2023-04-15T08:16:27.789Z,8.05
2023-04-15T08:18:56.448Z,8.08
2023-04-15T08:21:23.840Z,8.12
2023-04-15T08:23:52.486Z,8.13
2023-04-15T08:26:19.937Z,8.15
2023-04-15T08:28:46.968Z,8.16
2023-04-15T08:31:15.558Z,8.19
2023-04-15T08:33:42.649Z,8.25
2023-04-15T08:36:09.423Z,8.29
2023-04-15T08:38:36.519Z,8.32
2023-04-15T08:41:07.388Z,8.35
2023-04-15T08:43:35.927Z,8.40
2023-04-15T08:46:04.411Z,8.43
2023-04-15T08:48:33.588Z,8.48
2023-04-15T08:51:00.875Z,8.53
2023-04-15T08:53:29.634Z,8.53
2023-04-15T08:56:00.019Z,8.55
2023-04-15T08:58:26.779Z,8.55
2023-04-15T09:00:53.738Z,8.54
2023-04-15T09:03:21.931Z,8.47
2023-04-15T09:05:48.618Z,8.47
2023-04-15T09:08:15.762Z,8.48
2023-04-15T09:10:42.626Z,8.49
2023-04-15T09:13:09.510Z,8.54
2023-04-15T09:15:38.611Z,8.58
2023-04-15T09:18:06.047Z,8.64
2023-04-15T09:20:41.675Z,8.71
2023-04-15T09:23:17.533Z,8.82
2023-04-15T09:25:44.187Z,9.00
2023-04-15T09:28:11.411Z,9.16
2023-04-15T09:30:38.127Z,9.33
2023-04-15T09:33:08.348Z,9.50
2023-04-15T09:35:36.852Z,9.55
2023-04-15T09:38:07.358Z,9.61
2023-04-15T09:43:13.199Z,9.91
2023-04-15T09:45:47.047Z,10.10
2023-04-15T09:50:54.894Z,10.78
2023-04-15T09:53:23.675Z,10.89
2023-04-15T09:55:55.915Z,11.06
2023-04-15T09:58:24.625Z,11.23
2023-04-15T10:00:52.453Z,11.26
2023-04-15T10:03:21.989Z,11.30
2023-04-15T10:05:51.252Z,11.37
2023-04-15T10:08:21.900Z,11.49
2023-04-15T10:10:49.188Z,11.62
2023-04-15T10:13:18.909Z,11.76
2023-04-15T10:15:57.550Z,11.94
2023-04-15T10:18:27.771Z,12.14
2023-04-15T10:20:55.569Z,12.27
2023-04-15T10:23:23.366Z,12.52
2023-04-15T10:25:52.250Z,12.83
2023-04-15T10:28:20.548Z,13.10
2023-04-15T10:30:48.406Z,13.15
2023-04-15T10:33:17.204Z,13.06
2023-04-15T10:35:45.058Z,13.07
2023-04-15T10:41:31.258Z,13.00
2023-04-15T10:44:03.399Z,12.98
2023-04-15T10:46:40.205Z,13.03
2023-04-15T10:49:13.489Z,13.06
2023-04-15T10:51:43.569Z,13.02
2023-04-15T11:05:52.424Z,12.97
2023-04-15T11:08:39.173Z,13.04
2023-04-15T11:11:05.874Z,13.05
2023-04-15T11:13:33.217Z,13.11
2023-04-15T11:16:01.613Z,13.18
2023-04-15T11:18:30.766Z,13.21
2023-04-15T11:21:01.182Z,13.25
2023-04-15T11:23:39.790Z,13.31
2023-04-15T11:26:11.716Z,13.39
2023-04-15T11:28:41.156Z,13.39
2023-04-15T11:31:11.366Z,13.43
2023-04-15T11:33:39.389Z,13.51
2023-04-15T11:36:06.209Z,13.57
2023-04-15T11:38:34.434Z,13.58
2023-04-15T11:41:01.225Z,13.64
2023-04-15T11:43:27.850Z,13.67
2023-04-15T11:45:57.501Z,13.69
2023-04-15T11:48:26.699Z,13.75
2023-04-15T11:50:57.260Z,13.87
2023-04-15T11:53:24.863Z,13.94
2023-04-15T11:55:53.567Z,14.01
2023-04-15T11:58:25.345Z,14.03
2023-04-15T12:00:55.027Z,14.08
2023-04-15T12:06:20.082Z,14.25
2023-04-15T12:16:49.233Z,15.16
2023-04-15T12:19:23.479Z,15.44
2023-04-15T12:21:50.802Z,15.64
2023-04-15T12:24:22.891Z,15.72
2023-04-15T12:26:53.244Z,15.72
2023-04-15T12:29:21.258Z,15.73
2023-04-15T12:31:52.198Z,15.78
2023-04-15T12:34:26.158Z,15.79
2023-04-15T12:36:52.667Z,15.83
2023-04-15T12:39:23.239Z,15.90
2023-04-15T12:41:49.836Z,16.01
2023-04-15T12:44:16.398Z,16.12
2023-04-15T12:46:42.956Z,16.31
2023-04-15T12:49:09.932Z,16.40
2023-04-15T12:51:36.460Z,16.41
2023-04-15T12:54:03.768Z,16.43
2023-04-15T12:56:30.552Z,16.57
2023-04-15T12:58:57.471Z,16.64
2023-04-15T13:01:24.085Z,16.57
2023-04-15T13:03:51.274Z,16.49
2023-04-15T13:06:17.937Z,16.57
2023-04-15T13:08:57.185Z,16.74
2023-04-15T13:11:25.434Z,16.78
2023-04-15T13:13:53.060Z,16.74
2023-04-15T13:16:19.780Z,16.65
2023-04-15T13:18:46.631Z,16.58
2023-04-15T13:21:13.403Z,16.47
2023-04-15T13:23:41.971Z,16.44
2023-04-15T13:26:08.561Z,16.42
2023-04-15T13:28:35.338Z,16.42
2023-04-15T13:31:01.898Z,16.36
2023-04-15T13:33:28.620Z,16.35
2023-04-15T13:35:55.192Z,16.34
2023-04-15T13:38:21.728Z,16.17
2023-04-15T13:40:48.519Z,16.12
2023-04-15T13:43:15.138Z,16.12
2023-04-15T13:45:41.729Z,16.25
2023-04-15T13:48:08.317Z,16.35
2023-04-15T13:50:35.034Z,16.41
2023-04-15T13:53:01.791Z,16.51
2023-04-15T13:55:28.841Z,16.60
2023-04-15T13:57:56.883Z,16.63
2023-04-15T14:00:23.514Z,16.65
2023-04-15T14:02:50.177Z,16.72
2023-04-15T14:05:17.188Z,16.80
2023-04-15T14:07:43.827Z,16.90
2023-04-15T14:10:10.669Z,16.87
2023-04-15T14:12:37.244Z,16.86
2023-04-15T14:15:04.229Z,16.88
2023-04-15T14:17:30.818Z,16.89
2023-04-15T14:19:57.381Z,16.89
2023-04-15T14:22:24.022Z,16.92
2023-04-15T14:24:53.153Z,16.94
2023-04-15T14:27:19.819Z,16.90
2023-04-15T14:29:46.620Z,16.93
2023-04-15T14:32:14.087Z,16.98
2023-04-15T14:34:41.387Z,16.99
2023-04-15T14:37:08.042Z,16.93
2023-04-15T14:39:34.691Z,16.93
2023-04-15T14:42:01.334Z,17.02
2023-04-15T14:44:27.973Z,17.03
2023-04-15T14:46:54.948Z,17.01
2023-04-15T14:49:21.582Z,17.04
2023-04-15T14:51:48.201Z,17.09
2023-04-15T14:54:15.459Z,17.12
2023-04-15T14:56:42.026Z,17.14
2023-04-15T14:59:08.560Z,17.18
2023-04-15T15:01:35.317Z,17.23
2023-04-15T15:04:02.181Z,17.26
2023-04-15T15:06:28.795Z,17.26
2023-04-15T15:08:55.433Z,17.21
2023-04-15T15:11:21.969Z,17.23
2023-04-15T15:13:48.607Z,17.27
2023-04-15T15:16:15.288Z,17.31
2023-04-15T15:18:41.986Z,17.29
2023-04-15T15:21:09.537Z,17.26
2023-04-15T15:23:36.086Z,17.20
2023-04-15T15:26:02.688Z,17.07
2023-04-15T15:28:29.440Z,17.05
2023-04-15T15:30:56.332Z,17.04
2023-04-15T15:33:23.459Z,17.09
2023-04-15T15:35:50.918Z,17.23
2023-04-15T15:38:17.727Z,17.26
2023-04-15T15:40:44.504Z,17.32
2023-04-15T15:43:11.179Z,17.41
2023-04-15T15:45:37.807Z,17.51
2023-04-15T15:48:04.926Z,17.56
2023-04-15T15:50:31.846Z,17.56
2023-04-15T15:52:58.732Z,17.57
2023-04-15T15:55:27.134Z,17.57
2023-04-15T15:57:54.390Z,17.53
2023-04-15T16:00:21.418Z,17.50
2023-04-15T16:05:17.548Z,17.52
2023-04-15T16:07:44.181Z,17.50
2023-04-15T16:10:11.167Z,17.45
2023-04-15T16:12:37.748Z,17.42
2023-04-15T16:15:04.730Z,17.43
2023-04-15T16:17:31.315Z,17.42
2023-04-15T16:20:00.684Z,17.43
2023-04-15T16:22:27.877Z,17.40
2023-04-15T16:24:54.465Z,17.38
2023-04-15T16:27:21.126Z,17.31
2023-04-15T16:29:47.769Z,17.23
2023-04-15T16:32:14.468Z,17.16
2023-04-15T16:34:41.364Z,17.12
2023-04-15T16:37:08.036Z,17.12
2023-04-15T16:39:34.656Z,17.08
2023-04-15T16:42:02.467Z,17.04
2023-04-15T16:44:29.280Z,16.98
2023-04-15T16:46:56.382Z,16.92
2023-04-15T16:49:22.956Z,16.83
2023-04-15T16:51:49.487Z,16.75
2023-04-15T16:54:16.047Z,16.69
2023-04-15T16:56:42.676Z,16.65
2023-04-15T16:59:09.227Z,16.63
2023-04-15T17:01:36.125Z,16.58
2023-04-15T17:04:02.970Z,16.58
2023-04-15T17:06:30.710Z,16.60
2023-04-15T17:08:57.333Z,16.53
2023-04-15T17:11:23.967Z,16.51
2023-04-15T17:13:51.127Z,16.48
2023-04-15T17:16:17.801Z,16.48
2023-04-15T17:18:44.799Z,16.45
2023-04-15T17:21:11.441Z,16.44
2023-04-15T17:23:37.977Z,16.42
2023-04-15T17:26:04.545Z,16.41
2023-04-15T17:28:31.116Z,16.40
2023-04-15T17:30:57.700Z,16.39
2023-04-15T17:33:55.794Z,16.36
2023-04-15T17:36:11.407Z,16.32
2023-04-15T17:38:37.952Z,16.28
2023-04-15T17:41:04.904Z,16.27
2023-04-15T17:43:32.005Z,16.23
2023-04-15T17:45:58.837Z,16.16
2023-04-15T17:48:26.322Z,16.09
2023-04-15T17:50:52.856Z,16.01
2023-04-15T17:53:19.485Z,15.91
2023-04-15T17:55:46.554Z,15.82
2023-04-15T17:58:13.249Z,15.74
2023-04-15T18:00:39.846Z,15.65
2023-04-15T18:03:06.798Z,15.59
2023-04-15T18:05:33.840Z,15.51
2023-04-15T18:08:00.436Z,15.44
2023-04-15T18:10:26.986Z,15.35
2023-04-15T18:12:53.546Z,15.27
2023-04-15T18:15:20.145Z,15.19
2023-04-15T18:17:47.963Z,15.13
2023-04-15T18:20:14.728Z,15.05
2023-04-15T18:22:42.416Z,14.98
2023-04-15T18:25:09.192Z,14.89
2023-04-15T18:27:38.987Z,14.80
2023-04-15T18:30:07.704Z,14.49
2023-04-15T18:32:34.376Z,14.57
2023-04-15T18:35:01.115Z,14.50
2023-04-15T18:37:29.531Z,14.43
2023-04-15T18:39:56.248Z,14.35
2023-04-15T18:42:23.802Z,14.30
2023-04-15T18:44:51.323Z,14.22
2023-04-15T18:47:18.044Z,14.12
2023-04-15T18:49:44.822Z,14.05
2023-04-15T18:52:11.978Z,13.94
2023-04-15T18:54:38.593Z,13.82
2023-04-15T18:57:06.456Z,13.75
2023-04-15T18:59:33.639Z,13.66
2023-04-15T19:02:01.369Z,13.59
2023-04-15T19:04:29.490Z,13.52
2023-04-15T19:06:56.479Z,13.44
2023-04-15T19:09:23.069Z,13.37
2023-04-15T19:11:49.604Z,13.29
2023-04-15T19:14:17.433Z,13.25
2023-04-15T19:16:44.044Z,13.17
2023-04-15T19:19:10.703Z,13.09
2023-04-15T19:21:37.275Z,13.04
2023-04-15T19:24:03.974Z,12.95
2023-04-15T19:26:30.661Z,12.89
2023-04-15T19:28:58.953Z,12.81
2023-04-15T19:31:26.341Z,12.75
2023-04-15T19:33:53.040Z,12.67
2023-04-15T19:36:19.717Z,12.59
2023-04-15T19:38:46.253Z,12.51
2023-04-15T19:41:13.116Z,12.45
2023-04-15T19:43:39.660Z,12.40
2023-04-15T19:46:06.806Z,12.38
2023-04-15T19:48:33.406Z,12.33
2023-04-15T19:51:00.655Z,12.28
2023-04-15T19:53:27.234Z,12.25
2023-04-15T19:55:53.815Z,12.22
2023-04-15T19:58:20.396Z,12.18
2023-04-15T20:00:46.981Z,12.16
2023-04-15T20:03:13.858Z,12.12
2023-04-15T20:05:40.507Z,12.08
2023-04-15T20:08:07.092Z,12.05
2023-04-15T20:10:33.802Z,12.01
2023-04-15T20:13:00.504Z,11.98
2023-04-15T20:15:27.339Z,11.94
2023-04-15T20:17:53.975Z,11.91
2023-04-15T20:20:21.048Z,11.89
2023-04-15T20:22:47.863Z,11.86
2023-04-15T20:25:14.758Z,11.82
2023-04-15T20:27:41.341Z,11.82
2023-04-15T20:30:08.591Z,11.80
2023-04-15T20:32:36.020Z,11.77
2023-04-15T20:35:04.739Z,11.77
2023-04-15T20:37:33.399Z,11.76
2023-04-15T20:40:01.210Z,11.74
2023-04-15T20:42:27.984Z,11.72
2023-04-15T20:44:54.560Z,11.65
2023-04-15T20:47:21.273Z,11.57
2023-04-15T20:49:47.938Z,11.50
2023-04-15T20:52:14.554Z,11.45
2023-04-15T20:54:41.194Z,11.34
2023-04-15T20:57:07.786Z,11.28
2023-04-15T20:59:34.935Z,11.22
2023-04-15T21:02:02.065Z,11.15
2023-04-15T21:04:28.741Z,11.09
2023-04-15T21:06:55.552Z,11.00
2023-04-15T21:09:22.159Z,10.94
2023-04-15T21:14:19.254Z,10.82
2023-04-15T21:16:46.101Z,10.77
2023-04-15T21:19:12.760Z,10.72
2023-04-15T21:21:39.417Z,10.70
2023-04-15T21:24:07.824Z,10.66
2023-04-15T21:26:36.064Z,10.63
2023-04-15T21:29:03.144Z,10.59
2023-04-15T21:31:29.917Z,10.57
2023-04-15T21:33:56.669Z,10.54
2023-04-15T21:36:23.294Z,10.52
2023-04-15T21:38:49.912Z,10.49
2023-04-15T21:41:16.508Z,10.47
2023-04-15T21:43:43.115Z,10.46
2023-04-15T21:46:22.129Z,10.44
2023-04-15T21:48:53.522Z,10.39
2023-04-15T21:51:20.483Z,10.36
2023-04-15T21:53:47.048Z,10.34
2023-04-15T21:56:14.007Z,10.31
2023-04-15T21:58:40.659Z,10.31
2023-04-15T22:01:07.255Z,10.29
2023-04-15T22:03:35.125Z,10.29
2023-04-15T22:06:03.664Z,10.27
2023-04-15T22:08:38.634Z,10.26
2023-04-15T22:11:08.677Z,10.22
2023-04-15T22:13:35.781Z,10.21
2023-04-15T22:16:02.805Z,10.18
2023-04-15T22:18:29.318Z,10.14
2023-04-15T22:20:56.389Z,10.10
2023-04-15T22:23:22.917Z,10.05
2023-04-15T22:25:49.488Z,10.00
2023-04-15T22:28:16.134Z,9.95
2023-04-15T22:30:43.478Z,9.89
2023-04-15T22:33:10.349Z,9.83
2023-04-15T22:35:37.504Z,9.81
2023-04-15T22:38:05.054Z,9.76
2023-04-15T22:40:31.893Z,9.73
2023-04-15T22:42:58.893Z,9.72
2023-04-15T22:45:26.028Z,9.69
2023-04-15T22:47:53.133Z,9.66
2023-04-15T22:50:20.328Z,9.61
2023-04-15T22:52:48.424Z,9.58
2023-04-15T22:55:15.109Z,9.55
2023-04-15T22:57:42.099Z,9.52
2023-04-15T23:00:09.816Z,9.52
2023-04-15T23:02:36.948Z,9.47
2023-04-15T23:05:11.803Z,9.46
2023-04-15T23:07:40.435Z,9.44
2023-04-15T23:10:08.234Z,9.41
2023-04-15T23:12:34.962Z,9.37
2023-04-15T23:15:01.686Z,9.35
2023-04-15T23:17:28.288Z,9.34
2023-04-15T23:19:54.842Z,9.32
2023-04-15T23:22:21.403Z,9.30
2023-04-15T23:24:47.957Z,9.29
2023-04-15T23:27:14.529Z,9.26
2023-04-15T23:29:41.088Z,9.25
2023-04-15T23:32:07.686Z,9.25
2023-04-15T23:34:34.204Z,9.23
2023-04-15T23:37:00.959Z,9.23
2023-04-15T23:39:27.530Z,9.23
2023-04-15T23:41:54.157Z,9.23
2023-04-15T23:44:20.725Z,9.23
2023-04-15T23:46:47.293Z,9.23
2023-04-15T23:49:13.882Z,9.20
2023-04-15T23:51:41.030Z,9.20
2023-04-15T23:54:07.572Z,9.15
2023-04-15T23:56:34.109Z,9.12
2023-04-15T23:59:00.868Z,9.09
